Time;durP1;ratioP1;P1;durP2;ratioP2;P2;SDS_P1;SDS_P2;PMS_P1;PMS_P2;Temp;Humidity;BMP_temperature;BMP_pressure;BME280_temperature;BME280_humidity;BME280_pressure;Samples;Min_cycle;Max_cycle;Signal;HPM_P1;HPM_P2
2021/07/11 00:02:11;;;;;;;4.65;2.47;;;;;;;21.58;42.36;93835.13;4897684;29;20532;-68
2021/07/11 00:04:36;;;;;;;5.20;2.28;;;;;;;21.52;42.15;93836.66;4909329;29;20145;-68
2021/07/11 00:07:02;;;;;;;4.18;2.45;;;;;;;21.45;42.59;93831.97;4897547;29;20057;-68
2021/07/11 00:09:28;;;;;;;11.95;2.80;;;;;;;21.38;42.59;93823.78;4897440;29;20097;-68
2021/07/11 00:11:53;;;;;;;8.15;2.70;;;;;;;21.33;43.00;93822.22;4898308;29;20111;-68
2021/07/11 00:14:19;;;;;;;3.38;2.13;;;;;;;21.30;42.90;93828.41;4897249;29;20548;-68
2021/07/11 00:16:44;;;;;;;9.60;2.30;;;;;;;21.27;42.84;93821.03;4897425;29;20461;-69
2021/07/11 00:19:10;;;;;;;4.95;2.38;;;;;;;21.21;43.11;93825.28;4898551;29;20068;-68
2021/07/11 00:21:35;;;;;;;6.70;2.50;;;;;;;21.17;43.11;93816.38;4898497;29;20394;-69
2021/07/11 00:24:01;;;;;;;6.72;2.15;;;;;;;21.15;43.14;93821.38;4897165;29;20032;-69
2021/07/11 00:26:26;;;;;;;4.63;2.40;;;;;;;21.14;43.28;93827.94;4898377;29;20620;-68
2021/07/11 00:28:52;;;;;;;5.60;2.38;;;;;;;21.09;43.26;93820.19;4898198;29;20570;-68
2021/07/11 00:31:17;;;;;;;6.78;2.30;;;;;;;21.10;43.08;93827.16;4898454;29;20028;-68
2021/07/11 00:33:43;;;;;;;5.65;2.50;;;;;;;21.04;43.55;93819.41;4896948;29;20029;-68
2021/07/11 00:36:08;;;;;;;6.15;2.85;;;;;;;21.05;43.28;93820.19;4896835;29;20048;-68
2021/07/11 00:38:34;;;;;;;6.63;2.83;;;;;;;20.99;43.53;93819.00;4896903;29;20036;-68
2021/07/11 00:41:00;;;;;;;3.95;2.17;;;;;;;20.96;43.43;93815.09;4898220;29;20096;-68
2021/07/11 00:43:26;;;;;;;6.38;2.50;;;;;;;20.91;43.84;93820.88;4897858;29;20044;-68
2021/07/11 00:45:51;;;;;;;7.22;2.47;;;;;;;20.91;43.95;93826.31;4896757;29;20032;-68
2021/07/11 00:48:18;;;;;;;4.30;2.35;;;;;;;20.90;43.92;93823.97;4897928;29;20037;-68
2021/07/11 00:50:45;;;;;;;6.70;2.58;;;;;;;20.83;44.06;93824.72;4896562;29;20108;-68
2021/07/11 00:53:10;;;;;;;10.60;2.58;;;;;;;20.81;44.46;93821.59;4896620;29;20036;-68
2021/07/11 00:55:37;;;;;;;4.47;2.40;;;;;;;20.77;44.14;93820.81;4897707;29;20484;-68
2021/07/11 00:58:03;;;;;;;3.75;2.40;;;;;;;20.75;44.29;93817.69;4897897;29;20028;-69
2021/07/11 01:00:29;;;;;;;8.45;2.20;;;;;;;20.71;44.33;93819.63;4896538;29;20111;-68
2021/07/11 01:03:25;;;;;;;11.02;2.38;;;;;;;20.65;44.59;93813.78;4896787;29;20111;-68
2021/07/11 01:05:51;;;;;;;5.13;2.40;;;;;;;20.60;44.55;93812.19;4897789;29;20025;-69
2021/07/11 01:08:36;;;;;;;6.35;2.28;;;;;;;20.56;45.09;93813.31;4897645;29;20028;-68
2021/07/11 01:11:05;;;;;;;6.20;2.90;;;;;;;20.50;45.00;93814.81;4897672;29;20531;-68
2021/07/11 01:13:32;;;;;;;5.93;2.35;;;;;;;20.46;44.88;93817.50;4897698;29;20089;-68
2021/07/11 01:16:01;;;;;;;4.70;2.55;;;;;;;20.41;44.78;93812.41;4896397;29;20024;-68
2021/07/11 01:18:29;;;;;;;5.05;2.53;;;;;;;20.36;45.05;93807.38;4897605;29;20031;-68
2021/07/11 01:21:03;;;;;;;7.55;2.80;;;;;;;20.31;45.25;93813.13;4897400;29;20119;-68
2021/07/11 01:23:36;;;;;;;4.45;2.70;;;;;;;20.28;45.54;93808.47;4894026;29;20516;-68
2021/07/11 01:26:08;;;;;;;4.22;2.50;;;;;;;20.26;45.13;93808.06;4894251;29;20031;-68
2021/07/11 01:28:34;;;;;;;5.73;2.50;;;;;;;20.23;45.32;93810.38;4896149;29;20116;-68
2021/07/11 01:31:00;;;;;;;8.48;2.30;;;;;;;20.20;45.18;93805.69;4888452;29;20037;-68
2021/07/11 01:33:29;;;;;;;5.57;2.20;;;;;;;20.18;44.97;93805.31;4895751;29;20028;-68
2021/07/11 01:35:55;;;;;;;6.07;2.33;;;;;;;20.16;45.37;93794.06;4897265;29;20056;-68
2021/07/11 01:38:22;;;;;;;8.07;2.63;;;;;;;20.14;45.32;93796.38;4895858;29;20112;-68
2021/07/11 01:40:49;;;;;;;5.07;2.38;;;;;;;20.12;45.42;93803.31;4895924;29;20035;-68
2021/07/11 01:43:21;;;;;;;4.82;2.70;;;;;;;20.10;45.16;93809.09;4895472;29;20068;-68
2021/07/11 01:45:52;;;;;;;5.88;2.45;;;;;;;20.10;45.22;93809.09;4896684;29;20097;-68
2021/07/11 01:48:17;;;;;;;4.63;2.75;;;;;;;20.04;46.03;93813.31;4895535;29;20461;-68
2021/07/11 01:50:43;;;;;;;5.28;2.20;;;;;;;20.00;46.21;93809.78;4897051;29;20071;-68
2021/07/11 01:53:10;;;;;;;4.47;2.50;;;;;;;19.97;46.25;93805.91;4896988;29;20556;-68
2021/07/11 01:55:36;;;;;;;5.22;2.42;;;;;;;19.90;46.18;93813.19;4896822;29;20025;-68
2021/07/11 01:58:03;;;;;;;5.55;2.70;;;;;;;19.81;46.14;93816.97;4896748;29;20052;-68
2021/07/11 02:00:29;;;;;;;4.22;2.50;;;;;;;19.70;46.28;93812.59;4896374;29;20028;-68
2021/07/11 02:02:54;;;;;;;4.15;2.42;;;;;;;19.62;46.54;93811.72;4896728;29;20028;-68
2021/07/11 02:05:19;;;;;;;7.75;3.00;;;;;;;19.58;46.86;93811.72;4896660;29;20071;-68
2021/07/11 02:07:45;;;;;;;5.95;2.63;;;;;;;19.52;48.07;93817.81;4896482;29;20492;-68
2021/07/11 02:10:14;;;;;;;6.28;2.55;;;;;;;19.47;46.48;93823.56;4895353;29;20039;-69
2021/07/11 02:13:06;;;;;;;8.10;2.60;;;;;;;19.42;47.73;93832.78;4892387;29;20111;-68
2021/07/11 02:15:32;;;;;;;4.55;2.75;;;;;;;19.37;47.57;93836.56;4895377;29;20036;-68
2021/07/11 02:18:00;;;;;;;4.25;2.75;;;;;;;19.32;47.08;93836.91;4896323;29;20040;-68
2021/07/11 02:20:27;;;;;;;4.43;2.63;;;;;;;19.32;47.17;93838.84;4896332;29;20032;-68
2021/07/11 02:22:56;;;;;;;4.57;2.65;;;;;;;19.30;47.42;93836.50;4896202;29;20516;-68
2021/07/11 02:25:21;;;;;;;6.97;2.85;;;;;;;19.29;47.97;93844.97;4895988;29;20032;-68
2021/07/11 02:27:51;;;;;;;4.93;2.25;;;;;;;19.28;47.97;93838.81;4894969;29;20050;-68
2021/07/11 02:30:19;;;;;;;12.80;2.70;;;;;;;19.27;48.12;93839.94;4892811;29;20116;-68
2021/07/11 02:32:47;;;;;;;5.63;2.78;;;;;;;19.27;48.37;93850.75;4892550;29;20123;-68
2021/07/11 02:35:15;;;;;;;7.93;3.22;;;;;;;19.26;49.09;93845.72;4895973;29;20145;-68
2021/07/11 02:37:51;;;;;;;9.02;2.65;;;;;;;19.22;49.24;93845.69;4895980;29;20546;-68
2021/07/11 02:40:17;;;;;;;10.02;2.58;;;;;;;19.14;49.28;93842.09;4892425;29;20032;-68
2021/07/11 02:42:44;;;;;;;6.82;2.90;;;;;;;19.10;49.48;93843.22;4895866;29;20056;-68
2021/07/11 02:45:11;;;;;;;5.13;2.33;;;;;;;19.02;49.52;93843.13;4895895;29;20029;-68
2021/07/11 02:47:39;;;;;;;4.35;2.80;;;;;;;18.99;49.76;93843.88;4894540;29;20084;-68
2021/07/11 02:50:07;;;;;;;6.43;2.85;;;;;;;18.96;50.14;93852.69;4895950;29;20039;-68
2021/07/11 02:52:35;;;;;;;6.82;2.60;;;;;;;18.93;49.53;93847.22;4894414;29;20021;-68
2021/07/11 02:55:08;;;;;;;6.30;2.72;;;;;;;18.89;49.68;93860.72;4894548;29;20020;-68
2021/07/11 02:57:36;;;;;;;5.68;2.83;;;;;;;18.82;49.54;93858.66;4895580;29;20032;-69
2021/07/11 03:00:06;;;;;;;5.22;3.08;;;;;;;18.77;49.91;93852.78;4895907;29;20040;-68
2021/07/11 03:02:33;;;;;;;3.55;2.50;;;;;;;18.73;50.45;93858.13;4894471;29;20088;-68
2021/07/11 03:05:00;;;;;;;5.38;2.90;;;;;;;18.71;50.28;93860.44;4894308;29;20492;-68
2021/07/11 03:07:25;;;;;;;10.48;2.53;;;;;;;18.67;50.87;93872.31;4895581;29;20040;-68
2021/07/11 03:09:51;;;;;;;5.35;3.15;;;;;;;18.63;50.44;93870.34;4894565;29;20025;-68
2021/07/11 03:12:17;;;;;;;6.30;2.97;;;;;;;18.61;49.89;93867.22;4895363;29;20037;-68
2021/07/11 03:14:47;;;;;;;6.03;2.72;;;;;;;18.58;50.93;93861.75;4895562;29;20102;-68
2021/07/11 03:17:14;;;;;;;5.97;3.13;;;;;;;18.51;50.24;93865.16;4895573;29;20044;-68
2021/07/11 03:19:42;;;;;;;4.82;2.80;;;;;;;18.52;50.94;93866.72;4895210;29;20066;-69
2021/07/11 03:22:07;;;;;;;4.57;2.70;;;;;;;18.51;50.62;93870.53;4895406;29;20029;-68
2021/07/11 03:24:36;;;;;;;5.32;2.78;;;;;;;18.51;50.66;93862.44;4895760;29;20033;-69
2021/07/11 03:27:02;;;;;;;8.55;3.22;;;;;;;18.57;50.86;93869.09;4898414;29;20092;-68
2021/07/11 03:29:51;;;;;;;6.53;2.47;;;;;;;18.59;50.76;93860.63;4898424;29;20534;-68
2021/07/11 03:32:18;;;;;;;8.32;3.08;;;;;;;18.61;50.00;93866.44;4897882;29;20040;-68
2021/07/11 03:34:46;;;;;;;5.65;2.70;;;;;;;18.66;50.64;93858.03;4899189;29;20056;-68
2021/07/11 03:37:13;;;;;;;3.28;2.28;;;;;;;18.70;48.96;93863.47;4897999;29;20111;-68
2021/07/11 03:39:46;;;;;;;10.20;2.75;;;;;;;18.77;49.03;93875.16;4899063;29;20067;-68
2021/07/11 03:42:13;;;;;;;5.07;3.03;;;;;;;18.76;49.41;93867.41;4899187;29;20074;-69
2021/07/11 03:44:42;;;;;;;4.68;2.95;;;;;;;18.80;49.94;93870.97;4899028;29;20095;-68
2021/07/11 03:47:10;;;;;;;6.80;2.60;;;;;;;18.78;49.73;93865.13;4897992;29;20025;-68
2021/07/11 03:49:39;;;;;;;7.18;2.83;;;;;;;18.78;50.09;93865.91;4895591;29;20508;-68
2021/07/11 03:52:06;;;;;;;10.75;2.88;;;;;;;18.77;49.69;93871.69;4899104;29;20500;-68
2021/07/11 03:54:38;;;;;;;7.13;3.05;;;;;;;18.76;50.53;93879.00;4898879;29;20036;-68
2021/07/11 03:57:06;;;;;;;6.88;2.60;;;;;;;18.79;49.71;93888.34;4897580;29;20033;-68
2021/07/11 03:59:33;;;;;;;5.50;2.55;;;;;;;18.81;50.60;93886.06;4898801;29;20397;-68
2021/07/11 04:02:05;;;;;;;6.20;2.88;;;;;;;18.83;49.98;93878.38;4898837;29;20036;-68
2021/07/11 04:04:32;;;;;;;5.78;2.75;;;;;;;18.88;49.73;93885.38;4898766;29;20390;-68
2021/07/11 04:06:58;;;;;;;5.25;3.03;;;;;;;18.91;49.58;93890.81;4898643;29;20040;-68
2021/07/11 04:09:26;;;;;;;8.57;3.03;;;;;;;18.96;49.96;93887.78;4897407;29;20058;-68
2021/07/11 04:11:52;;;;;;;8.32;2.95;;;;;;;19.03;50.05;93893.31;4898413;29;20037;-68
2021/07/11 04:14:19;;;;;;;9.55;2.72;;;;;;;19.09;49.32;93903.78;4897294;29;20028;-68
2021/07/11 04:16:49;;;;;;;6.72;2.95;;;;;;;19.13;48.63;93900.00;4897331;29;20092;-69
2021/07/11 04:19:23;;;;;;;5.82;2.83;;;;;;;19.20;50.05;93894.66;4894779;29;20075;-68
2021/07/11 04:21:52;;;;;;;6.28;3.00;;;;;;;19.28;48.57;93897.47;4898655;29;20086;-68
2021/07/11 04:24:18;;;;;;;6.55;2.88;;;;;;;19.33;49.09;93906.03;4898352;29;20064;-68
2021/07/11 04:26:44;;;;;;;4.90;2.47;;;;;;;19.36;49.26;93899.91;4898541;29;20043;-68
2021/07/11 04:29:10;;;;;;;6.18;2.67;;;;;;;19.35;49.00;93909.13;4898246;29;20489;-68
2021/07/11 04:31:36;;;;;;;8.57;3.10;;;;;;;19.41;47.92;93896.84;4896872;29;20476;-68
2021/07/11 04:34:13;;;;;;;5.15;2.92;;;;;;;19.51;48.45;93905.47;4898281;29;20063;-69
2021/07/11 04:36:39;;;;;;;3.85;2.50;;;;;;;19.59;48.86;93901.69;4896534;29;20036;-68
2021/07/11 04:39:04;;;;;;;4.88;2.88;;;;;;;19.67;49.88;93903.34;4896877;29;20048;-68
2021/07/11 04:41:30;;;;;;;8.07;4.03;;;;;;;19.76;48.55;93911.97;4898086;29;20027;-68
2021/07/11 04:44:02;;;;;;;9.23;2.92;;;;;;;19.86;48.36;93910.50;4898024;29;20028;-68
2021/07/11 04:46:27;;;;;;;8.93;3.08;;;;;;;19.95;48.02;93918.34;4898216;29;20572;-69
2021/07/11 04:48:52;;;;;;;8.70;2.90;;;;;;;20.00;48.90;93907.19;4897954;29;20036;-68
2021/07/11 04:51:18;;;;;;;10.32;3.25;;;;;;;20.02;47.42;93908.34;4896670;29;20036;-68
2021/07/11 04:53:43;;;;;;;5.28;3.40;;;;;;;20.07;47.01;93912.69;4896760;29;20507;-69
2021/07/11 04:56:10;;;;;;;8.93;3.40;;;;;;;20.14;46.56;93912.72;4912180;29;20156;-68
2021/07/11 04:58:35;;;;;;;10.65;3.20;;;;;;;20.21;47.78;93912.81;4896601;29;20029;-68
2021/07/11 05:01:00;;;;;;;9.68;3.47;;;;;;;20.23;47.96;93907.81;4897829;29;20044;-68
2021/07/11 05:03:26;;;;;;;6.13;3.25;;;;;;;20.32;47.35;93910.19;4896336;29;20522;-68
2021/07/11 05:05:51;;;;;;;10.27;3.20;;;;;;;20.43;47.44;93910.28;4897375;29;20036;-68
2021/07/11 05:08:16;;;;;;;8.38;3.22;;;;;;;20.54;47.68;93911.16;4897489;29;20025;-68
2021/07/11 05:10:42;;;;;;;9.77;3.85;;;;;;;20.60;46.88;93915.09;4897607;29;20477;-68
2021/07/11 05:13:07;;;;;;;9.20;3.53;;;;;;;20.74;46.18;93909.00;4897708;29;20169;-68
2021/07/11 05:15:33;;;;;;;9.20;3.40;;;;;;;20.79;46.84;93910.59;4897324;29;20027;-68
2021/07/11 05:17:58;;;;;;;8.30;3.28;;;;;;;20.87;46.63;93917.59;4897332;29;20508;-68
2021/07/11 05:20:24;;;;;;;6.32;3.30;;;;;;;20.95;46.74;93902.94;4896192;29;20040;-69
2021/07/11 05:22:49;;;;;;;5.38;2.95;;;;;;;21.07;46.65;93895.69;4897370;29;20486;-68
2021/07/11 05:25:14;;;;;;;12.10;3.25;;;;;;;21.17;46.28;93897.66;4897063;29;20103;-69
2021/07/11 05:27:40;;;;;;;10.38;2.97;;;;;;;21.26;45.83;93903.50;4897361;29;20111;-68
2021/07/11 05:30:06;;;;;;;6.95;3.92;;;;;;;21.28;45.68;93903.91;4896232;29;20020;-68
2021/07/11 05:32:32;;;;;;;9.23;2.95;;;;;;;21.41;45.69;93899.72;4895859;29;20039;-68
2021/07/11 05:34:57;;;;;;;7.20;2.97;;;;;;;21.49;45.28;93900.53;4895623;29;20057;-68
2021/07/11 05:37:22;;;;;;;6.78;3.05;;;;;;;21.58;45.15;93900.97;4897065;29;20032;-70
2021/07/11 05:39:48;;;;;;;8.27;3.30;;;;;;;21.69;45.01;93906.41;4897090;29;20408;-68
2021/07/11 05:42:13;;;;;;;5.25;2.92;;;;;;;21.81;45.49;93908.00;4894666;29;20036;-68
2021/07/11 05:44:38;;;;;;;8.40;3.35;;;;;;;21.91;44.68;93906.50;4897110;29;20032;-68
2021/07/11 05:47:04;;;;;;;7.43;3.30;;;;;;;22.02;45.11;93902.66;4895197;29;20386;-68
2021/07/11 05:49:30;;;;;;;6.13;3.20;;;;;;;22.11;44.68;93909.66;4896554;29;20411;-69
2021/07/11 05:51:55;;;;;;;10.75;3.20;;;;;;;22.20;44.76;93907.31;4896893;29;20035;-68
2021/07/11 05:54:21;;;;;;;7.22;3.05;;;;;;;22.27;44.20;93912.81;4896689;29;20108;-68
2021/07/11 05:56:46;;;;;;;11.75;3.25;;;;;;;22.37;43.69;93914.75;4899387;29;20503;-68
2021/07/11 05:59:11;;;;;;;8.18;2.70;;;;;;;22.48;44.87;93908.56;4896691;29;20032;-68
2021/07/11 06:01:37;;;;;;;8.00;3.45;;;;;;;22.58;45.00;93913.97;4895203;29;20103;-68
2021/07/11 06:04:02;;;;;;;6.32;3.65;;;;;;;22.71;43.96;93906.19;4896658;29;20088;-69
2021/07/11 06:06:27;;;;;;;14.10;3.40;;;;;;;22.79;42.81;93910.47;4896407;29;20028;-69
2021/07/11 06:08:53;;;;;;;6.28;3.08;;;;;;;22.89;42.62;93908.13;4896667;29;20024;-69
2021/07/11 06:11:18;;;;;;;8.38;3.63;;;;;;;22.94;43.20;93905.81;4896529;29;20435;-68
2021/07/11 06:13:44;;;;;;;6.28;3.53;;;;;;;23.01;42.96;93905.00;4896336;29;20025;-68
2021/07/11 06:16:09;;;;;;;10.57;3.83;;;;;;;23.09;42.86;93900.38;4896492;29;20032;-68
2021/07/11 06:18:35;;;;;;;8.23;3.83;;;;;;;23.14;42.66;93905.41;4896205;29;20500;-69
2021/07/11 06:21:00;;;;;;;6.82;3.42;;;;;;;23.20;42.20;93903.81;4896388;29;20411;-68
2021/07/11 06:23:26;;;;;;;6.82;3.42;;;;;;;23.28;42.06;93896.44;4896100;29;20035;-68
2021/07/11 06:25:51;;;;;;;10.75;3.83;;;;;;;23.37;41.80;93897.56;4896150;29;20176;-68
2021/07/11 06:28:16;;;;;;;10.80;3.55;;;;;;;23.41;41.60;93895.63;4896234;29;20029;-68
2021/07/11 06:30:42;;;;;;;12.68;3.92;;;;;;;23.50;41.77;93892.47;4896166;29;20033;-68
2021/07/11 06:33:07;;;;;;;7.72;3.35;;;;;;;23.58;41.72;93894.00;4895837;29;20033;-68
2021/07/11 06:35:33;;;;;;;8.85;3.80;;;;;;;23.66;41.81;93892.03;4895926;29;20183;-68
2021/07/11 06:37:58;;;;;;;4.80;3.30;;;;;;;23.74;41.91;93895.50;4896046;29;20036;-68
2021/07/11 06:40:24;;;;;;;5.15;3.38;;;;;;;23.85;41.57;93895.47;4896086;29;20032;-69
2021/07/11 06:42:50;;;;;;;10.90;3.30;;;;;;;23.93;41.03;93888.81;4894532;29;20112;-69
2021/07/11 06:45:16;;;;;;;12.68;5.00;;;;;;;23.97;40.30;93887.59;4894629;29;20123;-69
2021/07/11 06:47:42;;;;;;;6.82;3.78;;;;;;;24.07;40.69;93882.50;4894585;29;20119;-68
2021/07/11 06:50:10;;;;;;;6.28;3.25;;;;;;;24.20;40.51;93889.81;4896053;29;20111;-69
2021/07/11 06:52:36;;;;;;;12.18;3.60;;;;;;;24.32;39.93;93885.06;4891178;29;20028;-68
2021/07/11 06:55:07;;;;;;;6.82;3.38;;;;;;;24.42;39.50;93886.94;4894676;29;20382;-68
2021/07/11 06:57:33;;;;;;;25.58;3.55;;;;;;;24.53;39.75;93890.38;4895552;29;20032;-69
2021/07/11 06:59:59;;;;;;;7.10;3.40;;;;;;;24.61;38.80;93886.44;4895580;29;20035;-68
2021/07/11 07:02:24;;;;;;;8.48;3.50;;;;;;;24.69;37.29;93881.69;4895720;29;20068;-68
2021/07/11 07:04:50;;;;;;;8.75;2.72;;;;;;;24.79;36.98;93885.47;4895360;29;20177;-68
2021/07/11 07:07:15;;;;;;;11.27;3.92;;;;;;;24.86;37.34;93879.22;4894416;29;20043;-68
2021/07/11 07:09:41;;;;;;;12.10;3.45;;;;;;;24.97;36.53;93883.38;4894500;29;20202;-68
2021/07/11 07:12:06;;;;;;;6.70;2.90;;;;;;;25.05;35.16;93886.03;4895488;29;20029;-68
2021/07/11 07:14:33;;;;;;;19.42;3.20;;;;;;;25.12;33.38;93886.75;4895571;29;20035;-68
2021/07/11 07:16:58;;;;;;;6.10;3.17;;;;;;;25.19;33.90;93880.44;4895545;29;20029;-68
2021/07/11 07:19:23;;;;;;;12.07;2.95;;;;;;;25.26;32.74;93869.47;4895293;29;20032;-68
2021/07/11 07:21:49;;;;;;;7.78;2.63;;;;;;;25.32;32.95;93878.78;4895367;29;20036;-69
2021/07/11 07:24:14;;;;;;;5.32;2.67;;;;;;;25.40;32.95;93882.97;4895552;29;20120;-69
2021/07/11 07:26:40;;;;;;;5.20;2.92;;;;;;;25.45;32.37;93889.16;4893734;29;20041;-69
2021/07/11 07:29:05;;;;;;;5.38;2.97;;;;;;;25.46;32.23;93888.72;4895408;29;20032;-68
2021/07/11 07:31:30;;;;;;;7.63;2.42;;;;;;;25.51;31.19;93891.00;4895453;29;20449;-68
2021/07/11 07:33:56;;;;;;;6.28;2.97;;;;;;;25.53;31.58;93894.09;4895347;29;20027;-69
2021/07/11 07:36:21;;;;;;;4.47;2.60;;;;;;;25.56;31.67;93892.50;4893981;29;20394;-68
2021/07/11 07:38:47;;;;;;;10.77;2.97;;;;;;;25.61;32.06;93887.38;4894180;29;20027;-69
2021/07/11 07:41:12;;;;;;;8.05;3.03;;;;;;;25.66;32.48;93880.69;4894218;29;20067;-69
2021/07/11 07:43:37;;;;;;;6.63;2.90;;;;;;;25.75;32.61;93883.72;4895074;29;20036;-68
2021/07/11 07:46:03;;;;;;;16.10;3.20;;;;;;;25.84;31.89;93880.47;4895417;29;20119;-68
2021/07/11 07:48:28;;;;;;;8.85;2.85;;;;;;;25.88;31.48;93889.38;4894100;29;20092;-68
2021/07/11 07:50:54;;;;;;;7.13;2.90;;;;;;;25.92;30.31;93883.91;4895395;29;20039;-68
2021/07/11 07:53:19;;;;;;;4.80;2.70;;;;;;;25.96;30.83;93884.63;4895256;29;20479;-68
2021/07/11 07:55:45;;;;;;;4.57;2.67;;;;;;;25.97;31.97;93886.97;4893882;29;20119;-69
2021/07/11 07:58:10;;;;;;;13.27;2.88;;;;;;;26.04;31.96;93885.31;4895136;29;20025;-69
2021/07/11 08:00:36;;;;;;;5.53;3.00;;;;;;;26.06;31.79;93877.50;4895156;29;20029;-69
2021/07/11 08:03:01;;;;;;;5.93;2.75;;;;;;;26.10;33.84;93886.41;4894902;29;20029;-68
2021/07/11 08:05:28;;;;;;;10.10;3.28;;;;;;;26.12;34.63;93882.06;4895174;29;20503;-68
2021/07/11 08:07:53;;;;;;;7.57;3.30;;;;;;;26.15;35.11;93878.50;4893644;29;20068;-68
2021/07/11 08:10:19;;;;;;;8.57;3.45;;;;;;;26.19;33.26;93881.19;4895053;29;20036;-69
2021/07/11 08:12:46;;;;;;;7.82;4.15;;;;;;;26.21;33.57;93887.00;4897399;29;20051;-69
2021/07/11 08:15:16;;;;;;;4.05;2.80;;;;;;;26.22;33.75;93883.88;4898871;29;20040;-68
2021/07/11 08:17:46;;;;;;;7.57;3.10;;;;;;;26.23;33.81;93884.63;4898513;29;20035;-69
2021/07/11 08:20:12;;;;;;;8.48;2.92;;;;;;;26.25;33.28;93885.00;4898539;29;20032;-68
2021/07/11 08:22:38;;;;;;;4.35;2.53;;;;;;;26.31;32.89;93879.84;4897283;29;20028;-69
2021/07/11 08:25:05;;;;;;;8.07;2.80;;;;;;;26.35;33.14;93877.84;4898443;29;20067;-68
2021/07/11 08:27:30;;;;;;;3.95;2.63;;;;;;;26.36;32.90;93882.91;4894780;29;20067;-68
2021/07/11 08:29:55;;;;;;;5.07;2.92;;;;;;;26.36;32.96;93882.13;4898217;29;20543;-68
2021/07/11 08:32:22;;;;;;;6.35;3.08;;;;;;;26.40;33.18;93883.59;4896914;29;20029;-68
2021/07/11 08:34:48;;;;;;;9.98;3.30;;;;;;;26.48;34.05;93887.00;4896768;29;20079;-69
2021/07/11 08:37:13;;;;;;;7.53;2.97;;;;;;;26.55;33.85;93884.16;4898315;29;20060;-69
2021/07/11 08:39:39;;;;;;;5.25;2.72;;;;;;;26.65;32.68;93874.28;4897187;29;20028;-69
2021/07/11 08:42:07;;;;;;;6.63;2.90;;;;;;;26.71;32.34;93875.34;4898204;29;20064;-69
2021/07/11 08:44:33;;;;;;;13.20;2.95;;;;;;;26.73;31.78;93886.63;4897876;29;20024;-68
2021/07/11 08:46:58;;;;;;;8.40;2.92;;;;;;;26.82;31.87;93880.63;4897970;29;20032;-68
2021/07/11 08:49:23;;;;;;;5.53;3.00;;;;;;;26.88;31.73;93870.75;4896723;29;20029;-68
2021/07/11 08:51:56;;;;;;;10.82;3.10;;;;;;;26.92;31.39;93876.94;4898221;29;20028;-68
2021/07/11 08:54:22;;;;;;;6.90;2.55;;;;;;;27.01;31.27;93874.44;4897928;29;20507;-68
2021/07/11 08:56:47;;;;;;;6.68;3.30;;;;;;;27.10;31.10;93875.84;4897996;29;20037;-69
2021/07/11 08:59:12;;;;;;;6.03;2.97;;;;;;;27.19;30.60;93867.84;4896349;29;20292;-70
2021/07/11 09:01:38;;;;;;;4.70;2.28;;;;;;;27.17;28.99;93873.75;4896658;29;20036;-68
2021/07/11 09:04:08;;;;;;;6.28;2.38;;;;;;;27.21;28.57;93866.25;4896533;29;20182;-69
2021/07/11 09:06:55;;;;;;;8.55;3.58;;;;;;;27.27;29.00;93869.28;4896401;29;20040;-69
2021/07/11 09:09:26;;;;;;;4.30;2.25;;;;;;;27.31;29.04;93867.25;4897894;29;20025;-69
2021/07/11 09:11:59;;;;;;;5.25;3.08;;;;;;;27.33;29.89;93859.41;4897858;29;20032;-68
2021/07/11 09:14:26;;;;;;;4.25;2.05;;;;;;;27.32;28.07;93862.56;4894152;29;20105;-68
2021/07/11 09:16:53;;;;;;;6.15;2.67;;;;;;;27.31;28.93;93863.75;4897862;29;20097;-68
2021/07/11 09:19:36;;;;;;;6.35;3.10;;;;;;;27.39;29.53;93863.19;4896188;29;20032;-69
2021/07/11 09:22:07;;;;;;;8.38;2.60;;;;;;;27.49;28.88;93857.94;4896804;29;20040;-69
2021/07/11 09:24:35;;;;;;;6.75;1.88;;;;;;;27.58;27.85;93852.69;4895913;29;20056;-68
2021/07/11 09:27:21;;;;;;;3.97;2.17;;;;;;;27.66;27.93;93858.75;4897347;29;20036;-68
2021/07/11 09:29:47;;;;;;;4.55;2.15;;;;;;;27.70;26.35;93846.56;4897189;29;20037;-68
2021/07/11 09:32:28;;;;;;;12.75;2.85;;;;;;;27.70;27.67;93856.72;4897266;29;20044;-68
2021/07/11 09:34:54;;;;;;;3.90;2.47;;;;;;;27.80;27.49;93852.97;4895937;29;20069;-68
2021/07/11 09:37:21;;;;;;;5.47;2.08;;;;;;;27.83;27.45;93859.59;4897537;29;20480;-68
2021/07/11 09:39:53;;;;;;;7.25;2.60;;;;;;;27.91;27.46;93852.81;4895919;29;20099;-68
2021/07/11 09:42:39;;;;;;;3.25;2.45;;;;;;;27.95;25.43;93853.50;4897173;29;20037;-69
2021/07/11 09:45:13;;;;;;;7.35;2.72;;;;;;;28.02;26.01;93850.59;4895111;29;20064;-69
2021/07/11 09:47:39;;;;;;;5.93;2.30;;;;;;;28.06;26.88;93848.53;4897084;29;20115;-68
2021/07/11 09:50:19;;;;;;;5.20;2.38;;;;;;;28.12;26.86;93848.81;4895792;29;20120;-68
2021/07/11 09:52:47;;;;;;;5.90;2.60;;;;;;;28.19;26.75;93837.66;4897071;29;20083;-69
2021/07/11 09:55:14;;;;;;;4.60;2.40;;;;;;;28.24;25.54;93841.91;4896946;29;20475;-68
2021/07/11 09:57:41;;;;;;;4.55;2.53;;;;;;;28.29;26.50;93844.09;4894988;29;20461;-68
2021/07/11 10:00:10;;;;;;;4.07;2.10;;;;;;;28.32;24.79;93843.28;4896698;29;20039;-68
2021/07/11 10:02:37;;;;;;;3.15;2.08;;;;;;;28.39;25.67;93832.13;4896730;29;20032;-69
2021/07/11 10:05:04;;;;;;;8.13;2.40;;;;;;;28.50;25.59;93838.16;4895470;29;20413;-68
2021/07/11 10:07:31;;;;;;;6.38;2.70;;;;;;;28.56;26.03;93836.44;4896579;29;20039;-69
2021/07/11 10:09:57;;;;;;;7.43;2.60;;;;;;;28.59;25.58;93843.78;4895590;29;20408;-69
2021/07/11 10:12:22;;;;;;;8.48;3.00;;;;;;;28.65;26.58;93840.56;4896433;29;20032;-68
2021/07/11 10:14:48;;;;;;;7.45;2.88;;;;;;;28.70;26.93;93835.31;4896507;29;20111;-68
2021/07/11 10:17:16;;;;;;;9.35;2.60;;;;;;;28.74;26.19;93838.75;4896676;29;20028;-69
2021/07/11 10:19:47;;;;;;;3.28;2.20;;;;;;;28.83;25.95;93831.88;4893935;29;20389;-68
2021/07/11 10:22:13;;;;;;;3.60;2.05;;;;;;;28.90;25.41;93821.50;4896604;29;20088;-69
2021/07/11 10:24:46;;;;;;;6.30;2.40;;;;;;;28.94;24.85;93821.38;4895043;29;20523;-69
2021/07/11 10:27:28;;;;;;;6.07;2.30;;;;;;;28.95;25.63;93829.19;4896439;29;20108;-68
2021/07/11 10:29:55;;;;;;;3.85;2.42;;;;;;;28.94;26.08;93824.91;4896177;29;20037;-69
2021/07/11 10:32:32;;;;;;;5.80;2.53;;;;;;;29.01;26.03;93821.97;4896133;29;20399;-69
2021/07/11 10:35:09;;;;;;;7.57;2.50;;;;;;;29.03;25.54;93818.03;4895532;29;20045;-68
2021/07/11 10:37:47;;;;;;;7.00;2.55;;;;;;;29.07;24.71;93815.97;4896163;29;20044;-68
2021/07/11 10:40:16;;;;;;;6.25;2.00;;;;;;;29.07;23.75;93813.22;4893076;29;20108;-68
2021/07/11 10:42:42;;;;;;;4.68;1.73;;;;;;;29.11;23.73;93813.94;4894855;29;20408;-69
2021/07/11 10:45:10;;;;;;;3.40;1.90;;;;;;;29.06;24.15;93809.69;4895823;29;20092;-69
2021/07/11 10:47:36;;;;;;;4.72;2.40;;;;;;;29.17;23.65;93807.47;4895824;29;20489;-68
2021/07/11 10:50:03;;;;;;;4.22;2.03;;;;;;;29.26;23.67;93809.56;4895954;29;20068;-69
2021/07/11 10:52:29;;;;;;;4.28;1.83;;;;;;;29.35;22.80;93806.97;4895970;29;20381;-68
2021/07/11 10:54:57;;;;;;;4.85;2.08;;;;;;;29.41;23.79;93809.94;4896251;29;20035;-69
2021/07/11 10:57:26;;;;;;;4.25;1.92;;;;;;;29.47;23.39;93810.94;4895833;29;20064;-68
2021/07/11 10:59:51;;;;;;;4.05;2.00;;;;;;;29.49;22.17;93802.28;4895734;29;20507;-68
2021/07/11 11:02:22;;;;;;;4.65;2.15;;;;;;;29.56;22.48;93804.81;4896242;29;20032;-69
2021/07/11 11:05:01;;;;;;;3.35;1.90;;;;;;;29.59;21.59;93803.94;4893562;29;20043;-68
2021/07/11 11:07:38;;;;;;;4.75;1.98;;;;;;;29.59;21.26;93791.00;4895863;29;20028;-68
2021/07/11 11:10:04;;;;;;;4.78;2.25;;;;;;;29.63;21.79;93788.13;4894358;29;20032;-69
2021/07/11 11:12:30;;;;;;;7.50;1.88;;;;;;;29.65;20.99;93788.47;4895773;29;20095;-69
2021/07/11 11:15:15;;;;;;;3.53;2.13;;;;;;;29.67;21.11;93780.56;4895488;29;20028;-68
2021/07/11 11:17:41;;;;;;;3.03;2.00;;;;;;;29.74;21.92;93774.13;4895603;29;20080;-68
2021/07/11 11:20:12;;;;;;;6.38;2.50;;;;;;;29.84;21.70;93775.78;4895527;29;20453;-68
2021/07/11 11:22:38;;;;;;;2.72;1.75;;;;;;;29.97;22.05;93767.53;4895482;29;20056;-68
2021/07/11 11:25:04;;;;;;;3.90;2.20;;;;;;;30.00;21.11;93767.41;4894155;29;20091;-69
2021/07/11 11:27:40;;;;;;;5.10;2.35;;;;;;;30.10;20.15;93773.78;4895568;29;20088;-68
2021/07/11 11:50:33;;;;;;;3.55;2.10;;;;;;;30.64;21.06;93743.81;4983689;28;20050;-69
2021/07/11 11:53:10;;;;;;;8.73;3.90;;;;;;;30.65;22.78;93739.81;4905017;28;1263963;-68
2021/07/11 11:55:38;;;;;;;7.72;3.00;;;;;;;30.70;23.65;93733.75;5076402;28;20086;-68